sensor_id;sensor_type;location;lat;lon;timestamp;pressure;altitude;pressure_sealevel;temperature
60731;BMP280;46580;52.114;11.674;2023-08-17T00:01:30;101370.50;;;20.94
60731;BMP280;46580;52.114;11.674;2023-08-17T00:03:56;101378.34;;;20.94
60731;BMP280;46580;52.114;11.674;2023-08-17T00:06:21;101376.53;;;20.94
60731;BMP280;46580;52.114;11.674;2023-08-17T00:08:47;101370.63;;;21.00
60731;BMP280;46580;52.114;11.674;2023-08-17T00:11:12;101372.59;;;20.98
60731;BMP280;46580;52.114;11.674;2023-08-17T00:13:38;101370.00;;;20.90
60731;BMP280;46580;52.114;11.674;2023-08-17T00:16:03;101380.81;;;20.87
60731;BMP280;46580;52.114;11.674;2023-08-17T00:18:29;101372.75;;;20.89
60731;BMP280;46580;52.114;11.674;2023-08-17T00:20:54;101370.50;;;20.86
60731;BMP280;46580;52.114;11.674;2023-08-17T00:23:19;101371.78;;;20.82
60731;BMP280;46580;52.114;11.674;2023-08-17T00:25:46;101371.31;;;20.79
60731;BMP280;46580;52.114;11.674;2023-08-17T00:28:13;101374.59;;;20.81
60731;BMP280;46580;52.114;11.674;2023-08-17T00:30:38;101363.16;;;20.82
60731;BMP280;46580;52.114;11.674;2023-08-17T00:33:04;101352.19;;;20.78
60731;BMP280;46580;52.114;11.674;2023-08-17T00:35:29;101341.56;;;20.80
60731;BMP280;46580;52.114;11.674;2023-08-17T00:37:58;101340.06;;;20.77
60731;BMP280;46580;52.114;11.674;2023-08-17T00:40:24;101342.53;;;20.79
60731;BMP280;46580;52.114;11.674;2023-08-17T00:42:49;101349.09;;;20.75
60731;BMP280;46580;52.114;11.674;2023-08-17T00:45:15;101339.91;;;20.71
60731;BMP280;46580;52.114;11.674;2023-08-17T00:47:41;101336.81;;;20.67
60731;BMP280;46580;52.114;11.674;2023-08-17T00:50:07;101335.84;;;20.68
60731;BMP280;46580;52.114;11.674;2023-08-17T00:52:33;101334.69;;;20.63
60731;BMP280;46580;52.114;11.674;2023-08-17T00:55:00;101333.72;;;20.64
60731;BMP280;46580;52.114;11.674;2023-08-17T00:57:26;101334.38;;;20.66
60731;BMP280;46580;52.114;11.674;2023-08-17T00:59:51;101335.66;;;20.62
60731;BMP280;46580;52.114;11.674;2023-08-17T01:02:17;101331.09;;;20.64
60731;BMP280;46580;52.114;11.674;2023-08-17T01:04:45;101339.91;;;20.63
60731;BMP280;46580;52.114;11.674;2023-08-17T01:07:11;101339.28;;;20.61
60731;BMP280;46580;52.114;11.674;2023-08-17T01:09:37;101335.50;;;20.64
60731;BMP280;46580;52.114;11.674;2023-08-17T01:12:29;101338.47;;;20.61
60731;BMP280;46580;52.114;11.674;2023-08-17T01:18:15;101333.72;;;20.48
60731;BMP280;46580;52.114;11.674;2023-08-17T01:20:43;101331.09;;;20.48
60731;BMP280;46580;52.114;11.674;2023-08-17T01:23:09;101327.19;;;20.45
60731;BMP280;46580;52.114;11.674;2023-08-17T01:25:35;101334.22;;;20.44
60731;BMP280;46580;52.114;11.674;2023-08-17T01:28:05;101326.72;;;20.41
60731;BMP280;46580;52.114;11.674;2023-08-17T01:30:39;101329.63;;;20.38
60731;BMP280;46580;52.114;11.674;2023-08-17T01:33:08;101330.97;;;20.34
60731;BMP280;46580;52.114;11.674;2023-08-17T01:35:44;101328.94;;;20.29
60731;BMP280;46580;52.114;11.674;2023-08-17T01:38:14;101330.09;;;20.26
60731;BMP280;46580;52.114;11.674;2023-08-17T01:40:41;101328.44;;;20.25
60731;BMP280;46580;52.114;11.674;2023-08-17T01:43:09;101330.41;;;20.23
60731;BMP280;46580;52.114;11.674;2023-08-17T01:45:35;101323.06;;;20.19
60731;BMP280;46580;52.114;11.674;2023-08-17T01:48:00;101320.59;;;20.17
60731;BMP280;46580;52.114;11.674;2023-08-17T01:50:26;101320.59;;;20.17
60731;BMP280;46580;52.114;11.674;2023-08-17T01:52:51;101328.59;;;20.16
60731;BMP280;46580;52.114;11.674;2023-08-17T01:55:16;101328.78;;;20.14
60731;BMP280;46580;52.114;11.674;2023-08-17T01:57:42;101316.03;;;20.11
60731;BMP280;46580;52.114;11.674;2023-08-17T02:00:08;101320.44;;;20.11
60731;BMP280;46580;52.114;11.674;2023-08-17T02:02:36;101317.97;;;20.10
60731;BMP280;46580;52.114;11.674;2023-08-17T02:05:01;101317.00;;;20.11
60731;BMP280;46580;52.114;11.674;2023-08-17T02:07:27;101314.06;;;20.06
60731;BMP280;46580;52.114;11.674;2023-08-17T02:09:53;101312.75;;;20.10
60731;BMP280;46580;52.114;11.674;2023-08-17T02:12:18;101306.53;;;20.03
60731;BMP280;46580;52.114;11.674;2023-08-17T02:14:43;101306.53;;;20.03
60731;BMP280;46580;52.114;11.674;2023-08-17T02:17:09;101310.47;;;20.07
60731;BMP280;46580;52.114;11.674;2023-08-17T02:19:34;101305.56;;;20.04
60731;BMP280;46580;52.114;11.674;2023-08-17T02:22:01;101303.59;;;20.06
60731;BMP280;46580;52.114;11.674;2023-08-17T02:24:27;101316.34;;;20.09
60731;BMP280;46580;52.114;11.674;2023-08-17T02:26:52;101320.59;;;20.10
60731;BMP280;46580;52.114;11.674;2023-08-17T02:29:18;101338.41;;;20.06
60731;BMP280;46580;52.114;11.674;2023-08-17T02:31:43;101380.69;;;19.94
60731;BMP280;46580;52.114;11.674;2023-08-17T02:34:09;101406.44;;;19.89
60731;BMP280;46580;52.114;11.674;2023-08-17T02:36:35;101411.38;;;19.92
60731;BMP280;46580;52.114;11.674;2023-08-17T02:39:00;101389.66;;;19.92
60731;BMP280;46580;52.114;11.674;2023-08-17T02:41:26;101396.19;;;19.88
60731;BMP280;46580;52.114;11.674;2023-08-17T02:43:51;101407.75;;;19.85
60731;BMP280;46580;52.114;11.674;2023-08-17T02:46:17;101411.03;;;19.87
60731;BMP280;46580;52.114;11.674;2023-08-17T02:48:42;101421.50;;;19.87
60731;BMP280;46580;52.114;11.674;2023-08-17T02:51:07;101414.13;;;19.91
60731;BMP280;46580;52.114;11.674;2023-08-17T02:53:33;101403.72;;;19.98
60731;BMP280;46580;52.114;11.674;2023-08-17T02:56:10;101409.78;;;20.07
60731;BMP280;46580;52.114;11.674;2023-08-17T02:58:41;101400.81;;;20.17
60731;BMP280;46580;52.114;11.674;2023-08-17T03:01:07;101389.53;;;20.16
60731;BMP280;46580;52.114;11.674;2023-08-17T03:03:33;101366.34;;;20.06
60731;BMP280;46580;52.114;11.674;2023-08-17T03:05:58;101366.31;;;19.98
60731;BMP280;46580;52.114;11.674;2023-08-17T03:08:24;101373.84;;;20.01
60731;BMP280;46580;52.114;11.674;2023-08-17T03:10:49;101370.59;;;20.07
60731;BMP280;46580;52.114;11.674;2023-08-17T03:13:17;101374.81;;;20.00
60731;BMP280;46580;52.114;11.674;2023-08-17T03:15:43;101367.78;;;19.92
60731;BMP280;46580;52.114;11.674;2023-08-17T03:18:11;101372.16;;;19.84
60731;BMP280;46580;52.114;11.674;2023-08-17T03:20:36;101371.00;;;19.79
60731;BMP280;46580;52.114;11.674;2023-08-17T03:23:02;101368.06;;;19.74
60731;BMP280;46580;52.114;11.674;2023-08-17T03:25:34;101366.22;;;19.67
60731;BMP280;46580;52.114;11.674;2023-08-17T03:28:00;101357.72;;;19.65
60731;BMP280;46580;52.114;11.674;2023-08-17T03:30:25;101365.53;;;19.57
60731;BMP280;46580;52.114;11.674;2023-08-17T03:32:50;101366.94;;;19.52
60731;BMP280;46580;52.114;11.674;2023-08-17T03:35:16;101362.34;;;19.46
60731;BMP280;46580;52.114;11.674;2023-08-17T03:37:41;101358.25;;;19.43
60731;BMP280;46580;52.114;11.674;2023-08-17T03:40:07;101365.94;;;19.45
60731;BMP280;46580;52.114;11.674;2023-08-17T03:42:33;101355.66;;;19.51
60731;BMP280;46580;52.114;11.674;2023-08-17T03:44:58;101344.25;;;19.52
60731;BMP280;46580;52.114;11.674;2023-08-17T03:47:26;101357.84;;;19.55
60731;BMP280;46580;52.114;11.674;2023-08-17T03:49:51;101355.75;;;19.59
60731;BMP280;46580;52.114;11.674;2023-08-17T03:52:17;101351.97;;;19.61
60731;BMP280;46580;52.114;11.674;2023-08-17T03:54:42;101349.03;;;19.56
60731;BMP280;46580;52.114;11.674;2023-08-17T03:57:08;101355.16;;;19.48
60731;BMP280;46580;52.114;11.674;2023-08-17T03:59:34;101349.25;;;19.38
60731;BMP280;46580;52.114;11.674;2023-08-17T04:01:59;101353.94;;;19.27
60731;BMP280;46580;52.114;11.674;2023-08-17T04:04:25;101351.78;;;19.22
60731;BMP280;46580;52.114;11.674;2023-08-17T04:06:50;101349.28;;;19.13
60731;BMP280;46580;52.114;11.674;2023-08-17T04:09:22;101346.84;;;19.12
60731;BMP280;46580;52.114;11.674;2023-08-17T04:11:50;101342.72;;;19.09
60731;BMP280;46580;52.114;11.674;2023-08-17T04:14:15;101338.94;;;19.04
60731;BMP280;46580;52.114;11.674;2023-08-17T04:16:43;101341.72;;;19.02
60731;BMP280;46580;52.114;11.674;2023-08-17T04:19:09;101339.25;;;19.01
60731;BMP280;46580;52.114;11.674;2023-08-17T04:21:34;101340.06;;;19.01
60731;BMP280;46580;52.114;11.674;2023-08-17T04:24:00;101338.44;;;19.00
60731;BMP280;46580;52.114;11.674;2023-08-17T04:26:25;101319.81;;;18.96
60731;BMP280;46580;52.114;11.674;2023-08-17T04:28:53;101317.06;;;18.97
60731;BMP280;46580;52.114;11.674;2023-08-17T04:31:19;101339.03;;;18.95
60731;BMP280;46580;52.114;11.674;2023-08-17T04:33:44;101356.06;;;18.99
60731;BMP280;46580;52.114;11.674;2023-08-17T04:36:09;101349.88;;;18.99
60731;BMP280;46580;52.114;11.674;2023-08-17T04:38:35;101359.97;;;19.02
60731;BMP280;46580;52.114;11.674;2023-08-17T04:41:00;101352.19;;;19.10
60731;BMP280;46580;52.114;11.674;2023-08-17T04:43:26;101357.91;;;19.14
60731;BMP280;46580;52.114;11.674;2023-08-17T04:45:51;101349.28;;;19.13
60731;BMP280;46580;52.114;11.674;2023-08-17T04:48:17;101351.91;;;19.13
60731;BMP280;46580;52.114;11.674;2023-08-17T04:50:42;101347.19;;;19.17
60731;BMP280;46580;52.114;11.674;2023-08-17T04:53:07;101345.69;;;19.14
60731;BMP280;46580;52.114;11.674;2023-08-17T04:55:33;101338.38;;;19.17
60731;BMP280;46580;52.114;11.674;2023-08-17T04:57:58;101335.91;;;19.16
60731;BMP280;46580;52.114;11.674;2023-08-17T05:00:24;101324.97;;;19.13
60731;BMP280;46580;52.114;11.674;2023-08-17T05:02:56;101334.41;;;19.14
60731;BMP280;46580;52.114;11.674;2023-08-17T05:05:22;101333.63;;;19.13
60731;BMP280;46580;52.114;11.674;2023-08-17T05:07:47;101321.69;;;19.11
60731;BMP280;46580;52.114;11.674;2023-08-17T05:10:13;101326.41;;;19.07
60731;BMP280;46580;52.114;11.674;2023-08-17T05:12:38;101316.78;;;19.08
60731;BMP280;46580;52.114;11.674;2023-08-17T05:15:04;101324.47;;;19.09
60731;BMP280;46580;52.114;11.674;2023-08-17T05:17:30;101301.59;;;19.03
60731;BMP280;46580;52.114;11.674;2023-08-17T05:19:55;101304.09;;;19.13
60731;BMP280;46580;52.114;11.674;2023-08-17T05:22:21;101306.91;;;19.19
60731;BMP280;46580;52.114;11.674;2023-08-17T05:24:47;101316.69;;;19.17
60731;BMP280;46580;52.114;11.674;2023-08-17T05:27:12;101330.22;;;19.20
60731;BMP280;46580;52.114;11.674;2023-08-17T05:29:38;101341.47;;;19.21
60731;BMP280;46580;52.114;11.674;2023-08-17T05:32:03;101342.31;;;19.21
60731;BMP280;46580;52.114;11.674;2023-08-17T05:34:28;101340.66;;;19.20
60731;BMP280;46580;52.114;11.674;2023-08-17T05:36:54;101336.13;;;19.22
60731;BMP280;46580;52.114;11.674;2023-08-17T05:39:19;101336.44;;;19.27
60731;BMP280;46580;52.114;11.674;2023-08-17T05:41:45;101348.03;;;19.25
60731;BMP280;46580;52.114;11.674;2023-08-17T05:44:10;101349.34;;;19.29
60731;BMP280;46580;52.114;11.674;2023-08-17T05:46:36;101346.44;;;19.32
60731;BMP280;46580;52.114;11.674;2023-08-17T05:49:04;101352.69;;;19.38
60731;BMP280;46580;52.114;11.674;2023-08-17T05:51:30;101356.13;;;19.39
60731;BMP280;46580;52.114;11.674;2023-08-17T05:53:55;101369.50;;;19.44
60731;BMP280;46580;52.114;11.674;2023-08-17T05:56:22;101370.63;;;19.41
60731;BMP280;46580;52.114;11.674;2023-08-17T05:58:49;101370.97;;;19.38
60731;BMP280;46580;52.114;11.674;2023-08-17T06:01:14;101371.44;;;19.42
60731;BMP280;46580;52.114;11.674;2023-08-17T06:03:40;101380.06;;;19.35
60731;BMP280;46580;52.114;11.674;2023-08-17T06:06:05;101375.66;;;19.35
60731;BMP280;46580;52.114;11.674;2023-08-17T06:08:31;101377.00;;;19.39
60731;BMP280;46580;52.114;11.674;2023-08-17T06:10:56;101372.28;;;19.42
60731;BMP280;46580;52.114;11.674;2023-08-17T06:13:22;101371.97;;;19.45
60731;BMP280;46580;52.114;11.674;2023-08-17T06:15:47;101377.19;;;19.45
60731;BMP280;46580;52.114;11.674;2023-08-17T06:18:16;101362.97;;;19.48
60731;BMP280;46580;52.114;11.674;2023-08-17T06:20:41;101375.97;;;19.57
60731;BMP280;46580;52.114;11.674;2023-08-17T06:23:07;101371.06;;;19.62
60731;BMP280;46580;52.114;11.674;2023-08-17T06:25:32;101366.34;;;19.57
60731;BMP280;46580;52.114;11.674;2023-08-17T06:27:59;101366.34;;;19.57
60731;BMP280;46580;52.114;11.674;2023-08-17T06:30:25;101369.63;;;19.59
60731;BMP280;46580;52.114;11.674;2023-08-17T06:32:51;101358.03;;;19.62
60731;BMP280;46580;52.114;11.674;2023-08-17T06:35:17;101357.31;;;19.52
60731;BMP280;46580;52.114;11.674;2023-08-17T06:37:42;101359.41;;;19.49
60731;BMP280;46580;52.114;11.674;2023-08-17T06:40:08;101359.41;;;19.49
60731;BMP280;46580;52.114;11.674;2023-08-17T06:42:36;101364.19;;;19.53
60731;BMP280;46580;52.114;11.674;2023-08-17T06:45:03;101358.84;;;19.62
60731;BMP280;46580;52.114;11.674;2023-08-17T06:47:28;101352.50;;;19.65
60731;BMP280;46580;52.114;11.674;2023-08-17T06:49:55;101356.25;;;19.70
60731;BMP280;46580;52.114;11.674;2023-08-17T06:52:23;101351.22;;;19.76
60731;BMP280;46580;52.114;11.674;2023-08-17T06:54:49;101352.72;;;19.79
60731;BMP280;46580;52.114;11.674;2023-08-17T06:57:15;101349.28;;;19.78
60731;BMP280;46580;52.114;11.674;2023-08-17T06:59:40;101348.31;;;19.79
60731;BMP280;46580;52.114;11.674;2023-08-17T07:02:06;101346.50;;;19.80
60731;BMP280;46580;52.114;11.674;2023-08-17T07:04:31;101348.81;;;19.91
60731;BMP280;46580;52.114;11.674;2023-08-17T07:06:56;101342.09;;;19.88
60731;BMP280;46580;52.114;11.674;2023-08-17T07:09:22;101344.09;;;19.94
60731;BMP280;46580;52.114;11.674;2023-08-17T07:11:47;101348.63;;;19.84
60731;BMP280;46580;52.114;11.674;2023-08-17T07:14:13;101343.72;;;19.81
60731;BMP280;46580;52.114;11.674;2023-08-17T07:16:38;101342.59;;;19.84
60731;BMP280;46580;52.114;11.674;2023-08-17T07:19:04;101345.19;;;19.84
60731;BMP280;46580;52.114;11.674;2023-08-17T07:21:29;101343.72;;;19.81
60731;BMP280;46580;52.114;11.674;2023-08-17T07:23:55;101352.38;;;19.82
60731;BMP280;46580;52.114;11.674;2023-08-17T07:26:21;101344.53;;;19.82
60731;BMP280;46580;52.114;11.674;2023-08-17T07:28:48;101347.00;;;19.83
60731;BMP280;46580;52.114;11.674;2023-08-17T07:31:14;101348.66;;;19.92
60731;BMP280;46580;52.114;11.674;2023-08-17T07:33:39;101345.72;;;19.95
60731;BMP280;46580;52.114;11.674;2023-08-17T07:36:05;101348.84;;;19.98
60731;BMP280;46580;52.114;11.674;2023-08-17T07:38:30;101357.34;;;20.08
60731;BMP280;46580;52.114;11.674;2023-08-17T07:40:56;101356.69;;;20.22
60731;BMP280;46580;52.114;11.674;2023-08-17T07:43:23;101352.47;;;20.21
60731;BMP280;46580;52.114;11.674;2023-08-17T07:45:56;101353.91;;;20.15
60731;BMP280;46580;52.114;11.674;2023-08-17T07:48:21;101361.63;;;20.25
60731;BMP280;46580;52.114;11.674;2023-08-17T07:50:52;101361.50;;;20.42
60731;BMP280;46580;52.114;11.674;2023-08-17T07:53:18;101361.19;;;20.45
60731;BMP280;46580;52.114;11.674;2023-08-17T07:55:44;101354.66;;;20.41
60731;BMP280;46580;52.114;11.674;2023-08-17T07:58:10;101357.25;;;20.48
60731;BMP280;46580;52.114;11.674;2023-08-17T08:00:36;101356.28;;;20.57
60731;BMP280;46580;52.114;11.674;2023-08-17T08:03:01;101357.09;;;20.66
60731;BMP280;46580;52.114;11.674;2023-08-17T08:05:26;101356.28;;;20.73
60731;BMP280;46580;52.114;11.674;2023-08-17T08:07:52;101355.63;;;20.86
60731;BMP280;46580;52.114;11.674;2023-08-17T08:10:18;101361.81;;;20.93
60731;BMP280;46580;52.114;11.674;2023-08-17T08:12:43;101357.41;;;21.02
60731;BMP280;46580;52.114;11.674;2023-08-17T08:15:09;101351.34;;;21.01
60731;BMP280;46580;52.114;11.674;2023-08-17T08:17:34;101353.63;;;21.12
60731;BMP280;46580;52.114;11.674;2023-08-17T08:20:00;101352.63;;;21.21
60731;BMP280;46580;52.114;11.674;2023-08-17T08:22:26;101354.72;;;21.25
60731;BMP280;46580;52.114;11.674;2023-08-17T08:24:51;101357.84;;;21.28
60731;BMP280;46580;52.114;11.674;2023-08-17T08:27:16;101367.66;;;21.34
60731;BMP280;46580;52.114;11.674;2023-08-17T08:29:42;101369.59;;;21.40
60731;BMP280;46580;52.114;11.674;2023-08-17T08:32:07;101366.59;;;21.51
60731;BMP280;46580;52.114;11.674;2023-08-17T08:34:33;101362.16;;;21.51
60731;BMP280;46580;52.114;11.674;2023-08-17T08:36:58;101363.81;;;21.44
60731;BMP280;46580;52.114;11.674;2023-08-17T08:39:27;101371.00;;;21.50
60731;BMP280;46580;52.114;11.674;2023-08-17T08:41:53;101367.13;;;21.39
60731;BMP280;46580;52.114;11.674;2023-08-17T08:44:18;101366.66;;;21.35
60731;BMP280;46580;52.114;11.674;2023-08-17T08:46:44;101371.22;;;21.41
60731;BMP280;46580;52.114;11.674;2023-08-17T08:49:11;101372.78;;;21.58
60731;BMP280;46580;52.114;11.674;2023-08-17T08:51:41;101365.50;;;21.75
60731;BMP280;46580;52.114;11.674;2023-08-17T08:54:08;101360.84;;;21.85
60731;BMP280;46580;52.114;11.674;2023-08-17T08:56:38;101360.84;;;21.93
60731;BMP280;46580;52.114;11.674;2023-08-17T08:59:05;101369.66;;;21.99
60731;BMP280;46580;52.114;11.674;2023-08-17T09:01:31;101368.03;;;21.98
60731;BMP280;46580;52.114;11.674;2023-08-17T09:04:00;101372.56;;;22.04
60731;BMP280;46580;52.114;11.674;2023-08-17T09:06:29;101367.97;;;22.06
60731;BMP280;46580;52.114;11.674;2023-08-17T09:08:56;101362.44;;;22.01
60731;BMP280;46580;52.114;11.674;2023-08-17T09:11:22;101368.03;;;21.98
60731;BMP280;46580;52.114;11.674;2023-08-17T09:13:47;101360.84;;;21.93
60731;BMP280;46580;52.114;11.674;2023-08-17T09:16:13;101362.31;;;21.95
60731;BMP280;46580;52.114;11.674;2023-08-17T09:18:38;101357.53;;;21.98
60731;BMP280;46580;52.114;11.674;2023-08-17T09:21:03;101359.66;;;22.03
60731;BMP280;46580;52.114;11.674;2023-08-17T09:23:32;101358.44;;;22.13
60731;BMP280;46580;52.114;11.674;2023-08-17T09:26:05;101362.00;;;22.20
60731;BMP280;46580;52.114;11.674;2023-08-17T09:28:33;101367.84;;;22.30
60731;BMP280;46580;52.114;11.674;2023-08-17T09:31:00;101368.19;;;22.49
60731;BMP280;46580;52.114;11.674;2023-08-17T09:33:28;101367.53;;;22.47
60731;BMP280;46580;52.114;11.674;2023-08-17T09:35:55;101365.84;;;22.32
60731;BMP280;46580;52.114;11.674;2023-08-17T09:38:21;101365.00;;;22.31
60731;BMP280;46580;52.114;11.674;2023-08-17T09:40:48;101365.38;;;22.28
60731;BMP280;46580;52.114;11.674;2023-08-17T09:43:15;101362.22;;;22.33
60731;BMP280;46580;52.114;11.674;2023-08-17T09:45:43;101370.75;;;22.35
60731;BMP280;46580;52.114;11.674;2023-08-17T09:48:10;101371.91;;;22.32
60731;BMP280;46580;52.114;11.674;2023-08-17T09:50:36;101364.19;;;22.31
60731;BMP280;46580;52.114;11.674;2023-08-17T09:53:02;101355.94;;;22.19
60731;BMP280;46580;52.114;11.674;2023-08-17T09:55:30;101356.47;;;22.15
60731;BMP280;46580;52.114;11.674;2023-08-17T09:57:57;101366.94;;;22.15
60731;BMP280;46580;52.114;11.674;2023-08-17T10:00:23;101365.47;;;22.13
60731;BMP280;46580;52.114;11.674;2023-08-17T10:02:50;101360.81;;;22.00
60731;BMP280;46580;52.114;11.674;2023-08-17T10:05:20;101358.34;;;21.99
60731;BMP280;46580;52.114;11.674;2023-08-17T10:07:54;101354.28;;;21.97
60731;BMP280;46580;52.114;11.674;2023-08-17T10:10:24;101352.41;;;22.05
60731;BMP280;46580;52.114;11.674;2023-08-17T10:15:37;101345.41;;;21.98
60731;BMP280;46580;52.114;11.674;2023-08-17T10:18:24;101343.94;;;22.03
60731;BMP280;46580;52.114;11.674;2023-08-17T10:20:58;101355.81;;;22.13
60731;BMP280;46580;52.114;11.674;2023-08-17T10:23:27;101348.22;;;22.18
60731;BMP280;46580;52.114;11.674;2023-08-17T10:25:53;101350.22;;;22.16
60731;BMP280;46580;52.114;11.674;2023-08-17T10:28:20;101352.78;;;22.24
60731;BMP280;46580;52.114;11.674;2023-08-17T10:30:47;101350.03;;;22.17
60731;BMP280;46580;52.114;11.674;2023-08-17T10:33:14;101357.28;;;22.16
60731;BMP280;46580;52.114;11.674;2023-08-17T10:35:40;101353.34;;;22.12
60731;BMP280;46580;52.114;11.674;2023-08-17T10:38:07;101347.94;;;22.13
60731;BMP280;46580;52.114;11.674;2023-08-17T10:40:38;101351.84;;;22.17
60731;BMP280;46580;52.114;11.674;2023-08-17T10:43:04;101346.97;;;22.14
60731;BMP280;46580;52.114;11.674;2023-08-17T10:45:34;101336.91;;;22.17
60731;BMP280;46580;52.114;11.674;2023-08-17T10:48:27;101339.75;;;22.16
60731;BMP280;46580;52.114;11.674;2023-08-17T10:51:00;101349.97;;;22.25
60731;BMP280;46580;52.114;11.674;2023-08-17T10:53:26;101337.97;;;22.31
60731;BMP280;46580;52.114;11.674;2023-08-17T10:55:57;101347.78;;;22.36
60731;BMP280;46580;52.114;11.674;2023-08-17T10:58:22;101358.50;;;22.49
60731;BMP280;46580;52.114;11.674;2023-08-17T11:00:54;101343.47;;;22.43
60731;BMP280;46580;52.114;11.674;2023-08-17T11:03:20;101349.88;;;22.41
60731;BMP280;46580;52.114;11.674;2023-08-17T11:05:47;101343.75;;;22.48
60731;BMP280;46580;52.114;11.674;2023-08-17T11:11:06;101344.97;;;22.60
60731;BMP280;46580;52.114;11.674;2023-08-17T11:13:33;101345.25;;;22.65
60731;BMP280;46580;52.114;11.674;2023-08-17T11:16:00;101356.16;;;22.54
60731;BMP280;46580;52.114;11.674;2023-08-17T11:18:26;101348.59;;;22.59
60731;BMP280;46580;52.114;11.674;2023-08-17T11:20:52;101344.91;;;22.68
60731;BMP280;46580;52.114;11.674;2023-08-17T11:23:19;101344.84;;;22.75
60731;BMP280;46580;52.114;11.674;2023-08-17T11:25:45;101344.56;;;22.85
60731;BMP280;46580;52.114;11.674;2023-08-17T11:28:10;101342.78;;;22.99
60731;BMP280;46580;52.114;11.674;2023-08-17T11:30:37;101338.91;;;23.10
60731;BMP280;46580;52.114;11.674;2023-08-17T11:33:04;101331.88;;;23.24
60731;BMP280;46580;52.114;11.674;2023-08-17T11:35:30;101330.84;;;23.67
60731;BMP280;46580;52.114;11.674;2023-08-17T11:37:55;101328.06;;;24.04
60731;BMP280;46580;52.114;11.674;2023-08-17T11:40:20;101323.72;;;24.58
60731;BMP280;46580;52.114;11.674;2023-08-17T11:42:46;101326.25;;;24.65
60731;BMP280;46580;52.114;11.674;2023-08-17T11:45:13;101321.28;;;24.56
60731;BMP280;46580;52.114;11.674;2023-08-17T11:47:42;101317.38;;;24.25
60731;BMP280;46580;52.114;11.674;2023-08-17T11:50:10;101318.41;;;24.10
60731;BMP280;46580;52.114;11.674;2023-08-17T11:52:35;101312.81;;;24.20
60731;BMP280;46580;52.114;11.674;2023-08-17T11:55:10;101310.78;;;24.15
60731;BMP280;46580;52.114;11.674;2023-08-17T11:57:37;101309.97;;;24.15
60731;BMP280;46580;52.114;11.674;2023-08-17T12:00:04;101315.84;;;23.96
60731;BMP280;46580;52.114;11.674;2023-08-17T12:02:31;101309.94;;;23.94
60731;BMP280;46580;52.114;11.674;2023-08-17T12:05:02;101313.47;;;24.01
60731;BMP280;46580;52.114;11.674;2023-08-17T12:07:28;101314.03;;;23.97
60731;BMP280;46580;52.114;11.674;2023-08-17T12:09:54;101315.22;;;24.15
60731;BMP280;46580;52.114;11.674;2023-08-17T12:12:21;101318.38;;;24.24
60731;BMP280;46580;52.114;11.674;2023-08-17T12:14:48;101322.25;;;24.28
60731;BMP280;46580;52.114;11.674;2023-08-17T12:17:15;101313.72;;;24.26
60731;BMP280;46580;52.114;11.674;2023-08-17T12:19:41;101310.13;;;24.13
60731;BMP280;46580;52.114;11.674;2023-08-17T12:22:07;101309.53;;;24.11
60731;BMP280;46580;52.114;11.674;2023-08-17T12:24:33;101324.50;;;24.11
60731;BMP280;46580;52.114;11.674;2023-08-17T12:27:05;101315.72;;;24.04
60731;BMP280;46580;52.114;11.674;2023-08-17T12:29:31;101322.34;;;24.00
60731;BMP280;46580;52.114;11.674;2023-08-17T12:31:57;101316.09;;;23.87
60731;BMP280;46580;52.114;11.674;2023-08-17T12:34:22;101317.44;;;24.11
60731;BMP280;46580;52.114;11.674;2023-08-17T12:36:49;101314.28;;;24.02
60731;BMP280;46580;52.114;11.674;2023-08-17T12:39:15;101317.31;;;23.85
60731;BMP280;46580;52.114;11.674;2023-08-17T12:41:40;101320.78;;;23.71
60731;BMP280;46580;52.114;11.674;2023-08-17T12:44:06;101312.63;;;23.66
60731;BMP280;46580;52.114;11.674;2023-08-17T12:46:31;101311.97;;;23.78
60731;BMP280;46580;52.114;11.674;2023-08-17T12:48:59;101305.50;;;23.81
60731;BMP280;46580;52.114;11.674;2023-08-17T12:51:25;101312.69;;;23.72
60731;BMP280;46580;52.114;11.674;2023-08-17T12:53:50;101297.88;;;23.85
60731;BMP280;46580;52.114;11.674;2023-08-17T12:56:15;101307.44;;;24.07
60731;BMP280;46580;52.114;11.674;2023-08-17T12:58:41;101306.97;;;24.18
60731;BMP280;46580;52.114;11.674;2023-08-17T13:01:06;101307.84;;;24.04
60731;BMP280;46580;52.114;11.674;2023-08-17T13:03:32;101302.19;;;23.93
60731;BMP280;46580;52.114;11.674;2023-08-17T13:05:58;101300.97;;;23.89
60731;BMP280;46580;52.114;11.674;2023-08-17T13:08:23;101293.28;;;24.08
60731;BMP280;46580;52.114;11.674;2023-08-17T13:10:49;101294.97;;;24.36
60731;BMP280;46580;52.114;11.674;2023-08-17T13:13:14;101292.06;;;24.72
60731;BMP280;46580;52.114;11.674;2023-08-17T13:15:40;101292.31;;;25.10
60731;BMP280;46580;52.114;11.674;2023-08-17T13:18:07;101288.34;;;25.66
60731;BMP280;46580;52.114;11.674;2023-08-17T13:20:32;101281.53;;;25.32
60731;BMP280;46580;52.114;11.674;2023-08-17T13:22:58;101279.16;;;25.16
60731;BMP280;46580;52.114;11.674;2023-08-17T13:25:23;101292.59;;;24.94
60731;BMP280;46580;52.114;11.674;2023-08-17T13:27:51;101288.13;;;24.61
60731;BMP280;46580;52.114;11.674;2023-08-17T13:30:17;101284.25;;;24.37
60731;BMP280;46580;52.114;11.674;2023-08-17T13:32:42;101283.28;;;24.38
60731;BMP280;46580;52.114;11.674;2023-08-17T13:35:08;101286.78;;;24.45
60731;BMP280;46580;52.114;11.674;2023-08-17T13:37:36;101287.91;;;24.36
60731;BMP280;46580;52.114;11.674;2023-08-17T13:40:01;101279.03;;;24.17
60731;BMP280;46580;52.114;11.674;2023-08-17T13:42:26;101286.91;;;24.17
60731;BMP280;46580;52.114;11.674;2023-08-17T13:44:52;101281.72;;;24.23
60731;BMP280;46580;52.114;11.674;2023-08-17T13:47:17;101289.66;;;24.09
60731;BMP280;46580;52.114;11.674;2023-08-17T13:49:43;101276.81;;;24.00